sensor_id;sensor_type;location;lat;lon;timestamp;P1;durP1;ratioP1;P2;durP2;ratioP2
49826;SDS011;35715;51.570;6.036;2023-11-19T00:02:13;15.25;;;13.40;;
49826;SDS011;35715;51.570;6.036;2023-11-19T00:04:38;15.02;;;12.52;;
49826;SDS011;35715;51.570;6.036;2023-11-19T00:07:04;14.50;;;13.00;;
49826;SDS011;35715;51.570;6.036;2023-11-19T00:09:32;16.73;;;14.00;;
49826;SDS011;35715;51.570;6.036;2023-11-19T00:11:57;14.70;;;13.00;;
49826;SDS011;35715;51.570;6.036;2023-11-19T00:14:25;14.85;;;11.80;;
49826;SDS011;35715;51.570;6.036;2023-11-19T00:16:50;15.32;;;12.50;;
49826;SDS011;35715;51.570;6.036;2023-11-19T00:19:18;14.20;;;11.55;;
49826;SDS011;35715;51.570;6.036;2023-11-19T00:21:44;19.10;;;13.27;;
49826;SDS011;35715;51.570;6.036;2023-11-19T00:24:10;12.88;;;10.40;;
49826;SDS011;35715;51.570;6.036;2023-11-19T00:26:37;20.63;;;10.95;;
49826;SDS011;35715;51.570;6.036;2023-11-19T00:29:03;17.73;;;11.73;;
49826;SDS011;35715;51.570;6.036;2023-11-19T00:31:29;16.52;;;10.48;;
49826;SDS011;35715;51.570;6.036;2023-11-19T00:33:54;15.60;;;9.90;;
49826;SDS011;35715;51.570;6.036;2023-11-19T00:36:19;13.93;;;9.75;;
49826;SDS011;35715;51.570;6.036;2023-11-19T00:38:45;12.20;;;9.40;;
49826;SDS011;35715;51.570;6.036;2023-11-19T00:41:10;15.77;;;10.20;;
49826;SDS011;35715;51.570;6.036;2023-11-19T00:43:36;18.88;;;10.10;;
49826;SDS011;35715;51.570;6.036;2023-11-19T00:46:01;12.20;;;9.30;;
49826;SDS011;35715;51.570;6.036;2023-11-19T00:48:28;18.08;;;9.35;;
49826;SDS011;35715;51.570;6.036;2023-11-19T00:50:53;14.05;;;8.10;;
49826;SDS011;35715;51.570;6.036;2023-11-19T00:53:19;15.27;;;7.57;;
49826;SDS011;35715;51.570;6.036;2023-11-19T00:55:44;14.63;;;8.30;;
49826;SDS011;35715;51.570;6.036;2023-11-19T00:58:09;9.02;;;6.78;;
49826;SDS011;35715;51.570;6.036;2023-11-19T01:00:35;10.38;;;6.57;;
49826;SDS011;35715;51.570;6.036;2023-11-19T01:03:00;12.32;;;7.32;;
49826;SDS011;35715;51.570;6.036;2023-11-19T01:05:26;10.60;;;7.22;;
49826;SDS011;35715;51.570;6.036;2023-11-19T01:07:52;8.15;;;6.80;;
49826;SDS011;35715;51.570;6.036;2023-11-19T01:10:18;8.30;;;6.45;;
49826;SDS011;35715;51.570;6.036;2023-11-19T01:12:44;10.27;;;6.95;;
49826;SDS011;35715;51.570;6.036;2023-11-19T01:15:09;20.75;;;7.95;;
49826;SDS011;35715;51.570;6.036;2023-11-19T01:17:36;23.70;;;6.30;;
49826;SDS011;35715;51.570;6.036;2023-11-19T01:20:11;7.07;;;5.70;;
49826;SDS011;35715;51.570;6.036;2023-11-19T01:22:38;10.30;;;4.97;;
49826;SDS011;35715;51.570;6.036;2023-11-19T01:25:04;7.50;;;5.63;;
49826;SDS011;35715;51.570;6.036;2023-11-19T01:27:30;10.73;;;4.88;;
49826;SDS011;35715;51.570;6.036;2023-11-19T01:29:56;7.57;;;5.55;;
49826;SDS011;35715;51.570;6.036;2023-11-19T01:32:21;8.80;;;5.63;;
49826;SDS011;35715;51.570;6.036;2023-11-19T01:34:55;7.05;;;5.13;;
49826;SDS011;35715;51.570;6.036;2023-11-19T01:37:21;9.85;;;5.22;;
49826;SDS011;35715;51.570;6.036;2023-11-19T01:39:46;18.92;;;5.72;;
49826;SDS011;35715;51.570;6.036;2023-11-19T01:45:07;20.33;;;5.57;;
49826;SDS011;35715;51.570;6.036;2023-11-19T01:47:34;8.45;;;4.43;;
49826;SDS011;35715;51.570;6.036;2023-11-19T01:50:00;14.90;;;5.65;;
49826;SDS011;35715;51.570;6.036;2023-11-19T01:52:26;22.25;;;3.97;;
49826;SDS011;35715;51.570;6.036;2023-11-19T01:54:52;10.07;;;4.72;;
49826;SDS011;35715;51.570;6.036;2023-11-19T01:57:18;8.02;;;4.20;;
49826;SDS011;35715;51.570;6.036;2023-11-19T01:59:46;7.55;;;4.00;;
49826;SDS011;35715;51.570;6.036;2023-11-19T02:02:11;6.00;;;4.40;;
49826;SDS011;35715;51.570;6.036;2023-11-19T02:04:40;11.75;;;4.43;;
49826;SDS011;35715;51.570;6.036;2023-11-19T02:07:06;18.35;;;4.57;;
49826;SDS011;35715;51.570;6.036;2023-11-19T02:09:32;13.95;;;4.65;;
49826;SDS011;35715;51.570;6.036;2023-11-19T02:11:58;19.13;;;5.13;;
49826;SDS011;35715;51.570;6.036;2023-11-19T02:14:24;14.65;;;4.78;;
49826;SDS011;35715;51.570;6.036;2023-11-19T02:16:53;21.80;;;4.68;;
49826;SDS011;35715;51.570;6.036;2023-11-19T02:19:19;17.60;;;4.50;;
49826;SDS011;35715;51.570;6.036;2023-11-19T02:21:45;13.30;;;3.85;;
49826;SDS011;35715;51.570;6.036;2023-11-19T02:24:10;19.27;;;5.55;;
49826;SDS011;35715;51.570;6.036;2023-11-19T02:29:35;25.33;;;3.80;;
49826;SDS011;35715;51.570;6.036;2023-11-19T02:32:00;12.10;;;4.38;;
49826;SDS011;35715;51.570;6.036;2023-11-19T02:34:26;8.68;;;3.17;;
49826;SDS011;35715;51.570;6.036;2023-11-19T02:36:52;21.98;;;6.43;;
49826;SDS011;35715;51.570;6.036;2023-11-19T02:39:18;15.02;;;5.50;;
49826;SDS011;35715;51.570;6.036;2023-11-19T02:41:46;18.67;;;5.35;;
49826;SDS011;35715;51.570;6.036;2023-11-19T02:44:12;23.50;;;5.55;;
49826;SDS011;35715;51.570;6.036;2023-11-19T02:46:38;12.02;;;4.20;;
49826;SDS011;35715;51.570;6.036;2023-11-19T02:49:07;27.45;;;6.53;;
49826;SDS011;35715;51.570;6.036;2023-11-19T02:51:32;18.52;;;4.70;;
49826;SDS011;35715;51.570;6.036;2023-11-19T02:53:57;16.88;;;4.43;;
49826;SDS011;35715;51.570;6.036;2023-11-19T02:56:23;15.90;;;6.05;;
49826;SDS011;35715;51.570;6.036;2023-11-19T03:01:52;23.15;;;5.75;;
49826;SDS011;35715;51.570;6.036;2023-11-19T03:04:17;15.05;;;5.35;;
49826;SDS011;35715;51.570;6.036;2023-11-19T03:06:45;10.10;;;3.90;;
49826;SDS011;35715;51.570;6.036;2023-11-19T03:09:11;28.17;;;6.30;;
49826;SDS011;35715;51.570;6.036;2023-11-19T03:11:36;14.32;;;4.72;;
49826;SDS011;35715;51.570;6.036;2023-11-19T03:14:02;15.95;;;3.97;;
49826;SDS011;35715;51.570;6.036;2023-11-19T03:16:28;10.50;;;4.18;;
49826;SDS011;35715;51.570;6.036;2023-11-19T03:18:54;16.77;;;4.50;;
49826;SDS011;35715;51.570;6.036;2023-11-19T03:21:26;14.88;;;3.67;;
49826;SDS011;35715;51.570;6.036;2023-11-19T03:23:52;20.48;;;4.32;;
49826;SDS011;35715;51.570;6.036;2023-11-19T03:26:18;23.40;;;6.30;;
49826;SDS011;35715;51.570;6.036;2023-11-19T03:28:43;20.52;;;4.53;;
49826;SDS011;35715;51.570;6.036;2023-11-19T03:31:11;17.48;;;5.30;;
49826;SDS011;35715;51.570;6.036;2023-11-19T03:33:37;36.17;;;8.18;;
49826;SDS011;35715;51.570;6.036;2023-11-19T03:36:02;33.72;;;6.10;;
49826;SDS011;35715;51.570;6.036;2023-11-19T03:38:31;21.83;;;4.97;;
49826;SDS011;35715;51.570;6.036;2023-11-19T03:40:56;34.85;;;6.68;;
49826;SDS011;35715;51.570;6.036;2023-11-19T03:43:21;26.58;;;5.68;;
49826;SDS011;35715;51.570;6.036;2023-11-19T03:45:47;22.77;;;5.55;;
49826;SDS011;35715;51.570;6.036;2023-11-19T03:48:13;24.50;;;5.57;;
49826;SDS011;35715;51.570;6.036;2023-11-19T03:50:41;37.42;;;7.50;;
49826;SDS011;35715;51.570;6.036;2023-11-19T03:53:09;26.80;;;5.78;;
49826;SDS011;35715;51.570;6.036;2023-11-19T03:55:34;33.08;;;5.85;;
49826;SDS011;35715;51.570;6.036;2023-11-19T03:57:59;34.28;;;5.55;;
49826;SDS011;35715;51.570;6.036;2023-11-19T04:00:25;43.38;;;7.95;;
49826;SDS011;35715;51.570;6.036;2023-11-19T04:02:50;35.35;;;6.00;;
49826;SDS011;35715;51.570;6.036;2023-11-19T04:05:16;35.95;;;7.43;;
49826;SDS011;35715;51.570;6.036;2023-11-19T04:07:43;34.60;;;6.38;;
49826;SDS011;35715;51.570;6.036;2023-11-19T04:10:09;26.60;;;5.85;;
49826;SDS011;35715;51.570;6.036;2023-11-19T04:12:34;35.45;;;7.20;;
49826;SDS011;35715;51.570;6.036;2023-11-19T04:15:00;39.60;;;7.82;;
49826;SDS011;35715;51.570;6.036;2023-11-19T04:17:26;27.35;;;5.57;;
49826;SDS011;35715;51.570;6.036;2023-11-19T04:19:54;28.48;;;5.28;;
49826;SDS011;35715;51.570;6.036;2023-11-19T04:22:19;36.38;;;6.63;;
49826;SDS011;35715;51.570;6.036;2023-11-19T04:24:44;29.10;;;6.15;;
49826;SDS011;35715;51.570;6.036;2023-11-19T04:27:10;29.45;;;5.90;;
49826;SDS011;35715;51.570;6.036;2023-11-19T04:29:36;33.47;;;6.32;;
49826;SDS011;35715;51.570;6.036;2023-11-19T04:32:01;38.25;;;6.88;;
49826;SDS011;35715;51.570;6.036;2023-11-19T04:34:27;37.30;;;6.80;;
49826;SDS011;35715;51.570;6.036;2023-11-19T04:36:52;38.90;;;6.55;;
49826;SDS011;35715;51.570;6.036;2023-11-19T04:39:20;31.40;;;6.15;;
49826;SDS011;35715;51.570;6.036;2023-11-19T04:41:49;42.97;;;7.93;;
49826;SDS011;35715;51.570;6.036;2023-11-19T04:44:16;39.53;;;8.80;;
49826;SDS011;35715;51.570;6.036;2023-11-19T04:46:42;37.20;;;8.90;;
49826;SDS011;35715;51.570;6.036;2023-11-19T04:49:09;29.38;;;6.20;;
49826;SDS011;35715;51.570;6.036;2023-11-19T04:51:39;43.85;;;8.18;;
49826;SDS011;35715;51.570;6.036;2023-11-19T04:54:08;29.38;;;6.78;;
49826;SDS011;35715;51.570;6.036;2023-11-19T04:56:37;29.70;;;6.15;;
49826;SDS011;35715;51.570;6.036;2023-11-19T04:59:02;41.10;;;10.05;;
49826;SDS011;35715;51.570;6.036;2023-11-19T05:01:30;39.03;;;8.90;;
49826;SDS011;35715;51.570;6.036;2023-11-19T05:03:56;33.50;;;7.53;;
49826;SDS011;35715;51.570;6.036;2023-11-19T05:06:25;41.40;;;7.65;;
49826;SDS011;35715;51.570;6.036;2023-11-19T05:08:52;43.75;;;7.85;;
49826;SDS011;35715;51.570;6.036;2023-11-19T05:11:17;38.22;;;7.47;;
49826;SDS011;35715;51.570;6.036;2023-11-19T05:13:45;32.92;;;8.43;;
49826;SDS011;35715;51.570;6.036;2023-11-19T05:16:11;36.58;;;9.23;;
49826;SDS011;35715;51.570;6.036;2023-11-19T05:18:39;34.75;;;7.60;;
49826;SDS011;35715;51.570;6.036;2023-11-19T05:21:05;34.17;;;7.07;;
49826;SDS011;35715;51.570;6.036;2023-11-19T05:23:30;29.15;;;6.82;;
49826;SDS011;35715;51.570;6.036;2023-11-19T05:25:56;29.48;;;7.40;;
49826;SDS011;35715;51.570;6.036;2023-11-19T05:28:23;37.00;;;6.35;;
49826;SDS011;35715;51.570;6.036;2023-11-19T05:30:49;35.03;;;8.90;;
49826;SDS011;35715;51.570;6.036;2023-11-19T05:33:15;29.20;;;7.00;;
49826;SDS011;35715;51.570;6.036;2023-11-19T05:35:40;33.72;;;8.05;;
49826;SDS011;35715;51.570;6.036;2023-11-19T05:38:05;41.95;;;9.45;;
49826;SDS011;35715;51.570;6.036;2023-11-19T05:40:31;39.50;;;7.22;;
49826;SDS011;35715;51.570;6.036;2023-11-19T05:42:56;29.13;;;8.07;;
49826;SDS011;35715;51.570;6.036;2023-11-19T05:45:22;27.60;;;6.38;;
49826;SDS011;35715;51.570;6.036;2023-11-19T05:47:50;32.65;;;8.02;;
49826;SDS011;35715;51.570;6.036;2023-11-19T05:50:16;28.55;;;6.72;;
49826;SDS011;35715;51.570;6.036;2023-11-19T05:52:43;42.15;;;7.55;;
49826;SDS011;35715;51.570;6.036;2023-11-19T05:55:08;25.55;;;8.25;;
49826;SDS011;35715;51.570;6.036;2023-11-19T05:57:35;32.67;;;8.65;;
49826;SDS011;35715;51.570;6.036;2023-11-19T06:00:02;39.50;;;8.48;;
49826;SDS011;35715;51.570;6.036;2023-11-19T06:02:33;49.33;;;10.32;;
49826;SDS011;35715;51.570;6.036;2023-11-19T06:04:59;37.58;;;9.95;;
49826;SDS011;35715;51.570;6.036;2023-11-19T06:07:26;31.73;;;8.07;;
49826;SDS011;35715;51.570;6.036;2023-11-19T06:09:51;31.13;;;9.32;;
49826;SDS011;35715;51.570;6.036;2023-11-19T06:12:17;34.08;;;7.00;;
49826;SDS011;35715;51.570;6.036;2023-11-19T06:14:42;36.95;;;6.95;;
49826;SDS011;35715;51.570;6.036;2023-11-19T06:17:07;32.85;;;6.25;;
49826;SDS011;35715;51.570;6.036;2023-11-19T06:19:33;36.70;;;7.10;;
49826;SDS011;35715;51.570;6.036;2023-11-19T06:21:59;30.02;;;8.90;;
49826;SDS011;35715;51.570;6.036;2023-11-19T06:24:24;32.15;;;6.53;;
49826;SDS011;35715;51.570;6.036;2023-11-19T06:26:50;40.55;;;8.40;;
49826;SDS011;35715;51.570;6.036;2023-11-19T06:29:15;43.58;;;8.45;;
49826;SDS011;35715;51.570;6.036;2023-11-19T06:31:44;29.73;;;7.78;;
49826;SDS011;35715;51.570;6.036;2023-11-19T06:34:09;34.85;;;8.80;;
49826;SDS011;35715;51.570;6.036;2023-11-19T06:36:36;32.38;;;9.63;;
49826;SDS011;35715;51.570;6.036;2023-11-19T06:39:02;35.05;;;8.55;;
49826;SDS011;35715;51.570;6.036;2023-11-19T06:41:28;46.30;;;8.23;;
49826;SDS011;35715;51.570;6.036;2023-11-19T06:43:54;25.33;;;6.70;;
49826;SDS011;35715;51.570;6.036;2023-11-19T06:46:19;27.75;;;7.13;;
49826;SDS011;35715;51.570;6.036;2023-11-19T06:48:45;28.67;;;6.80;;
49826;SDS011;35715;51.570;6.036;2023-11-19T06:51:11;38.15;;;7.93;;
49826;SDS011;35715;51.570;6.036;2023-11-19T06:53:37;39.85;;;7.75;;
49826;SDS011;35715;51.570;6.036;2023-11-19T06:56:04;25.80;;;6.75;;
49826;SDS011;35715;51.570;6.036;2023-11-19T06:58:31;33.70;;;6.82;;
49826;SDS011;35715;51.570;6.036;2023-11-19T07:00:59;33.50;;;8.35;;
49826;SDS011;35715;51.570;6.036;2023-11-19T07:03:24;36.15;;;7.43;;
49826;SDS011;35715;51.570;6.036;2023-11-19T07:05:50;40.20;;;9.38;;
49826;SDS011;35715;51.570;6.036;2023-11-19T07:08:15;35.45;;;7.38;;
49826;SDS011;35715;51.570;6.036;2023-11-19T07:10:40;39.75;;;8.18;;
49826;SDS011;35715;51.570;6.036;2023-11-19T07:13:06;30.30;;;6.70;;
49826;SDS011;35715;51.570;6.036;2023-11-19T07:15:31;50.05;;;8.65;;
49826;SDS011;35715;51.570;6.036;2023-11-19T07:17:57;44.88;;;8.02;;
49826;SDS011;35715;51.570;6.036;2023-11-19T07:20:26;36.35;;;7.85;;
49826;SDS011;35715;51.570;6.036;2023-11-19T07:22:52;33.33;;;7.47;;
49826;SDS011;35715;51.570;6.036;2023-11-19T07:25:19;34.42;;;5.15;;
49826;SDS011;35715;51.570;6.036;2023-11-19T07:27:45;38.28;;;7.07;;
49826;SDS011;35715;51.570;6.036;2023-11-19T07:30:12;38.70;;;7.47;;
49826;SDS011;35715;51.570;6.036;2023-11-19T07:32:37;42.03;;;8.00;;
49826;SDS011;35715;51.570;6.036;2023-11-19T07:35:04;34.67;;;6.80;;
49826;SDS011;35715;51.570;6.036;2023-11-19T07:37:30;34.00;;;9.60;;
49826;SDS011;35715;51.570;6.036;2023-11-19T07:39:56;31.13;;;6.32;;
49826;SDS011;35715;51.570;6.036;2023-11-19T07:42:21;25.08;;;6.32;;
49826;SDS011;35715;51.570;6.036;2023-11-19T07:44:47;33.42;;;8.02;;
49826;SDS011;35715;51.570;6.036;2023-11-19T07:47:13;35.70;;;9.15;;
49826;SDS011;35715;51.570;6.036;2023-11-19T07:49:38;52.55;;;8.45;;
49826;SDS011;35715;51.570;6.036;2023-11-19T07:52:08;37.10;;;9.45;;
49826;SDS011;35715;51.570;6.036;2023-11-19T07:54:34;30.35;;;9.50;;
49826;SDS011;35715;51.570;6.036;2023-11-19T07:56:59;37.03;;;9.25;;
49826;SDS011;35715;51.570;6.036;2023-11-19T07:59:25;37.50;;;7.20;;
49826;SDS011;35715;51.570;6.036;2023-11-19T08:01:50;27.60;;;6.53;;
49826;SDS011;35715;51.570;6.036;2023-11-19T08:04:16;35.00;;;8.77;;
49826;SDS011;35715;51.570;6.036;2023-11-19T08:06:42;36.70;;;8.13;;
49826;SDS011;35715;51.570;6.036;2023-11-19T08:09:07;69.55;;;10.38;;
49826;SDS011;35715;51.570;6.036;2023-11-19T08:11:38;36.75;;;9.45;;
49826;SDS011;35715;51.570;6.036;2023-11-19T08:14:04;30.77;;;6.68;;
49826;SDS011;35715;51.570;6.036;2023-11-19T08:16:30;35.72;;;9.77;;
49826;SDS011;35715;51.570;6.036;2023-11-19T08:18:55;37.47;;;6.13;;
49826;SDS011;35715;51.570;6.036;2023-11-19T08:21:23;29.17;;;6.60;;
49826;SDS011;35715;51.570;6.036;2023-11-19T08:23:48;25.42;;;7.55;;
49826;SDS011;35715;51.570;6.036;2023-11-19T08:26:14;28.63;;;8.75;;
49826;SDS011;35715;51.570;6.036;2023-11-19T08:28:40;36.45;;;8.00;;
49826;SDS011;35715;51.570;6.036;2023-11-19T08:31:05;34.33;;;7.65;;
49826;SDS011;35715;51.570;6.036;2023-11-19T08:33:31;38.45;;;7.10;;
49826;SDS011;35715;51.570;6.036;2023-11-19T08:35:57;35.83;;;8.05;;
49826;SDS011;35715;51.570;6.036;2023-11-19T08:38:23;43.90;;;7.72;;
49826;SDS011;35715;51.570;6.036;2023-11-19T08:40:49;48.75;;;10.35;;
49826;SDS011;35715;51.570;6.036;2023-11-19T08:43:14;34.53;;;8.13;;
49826;SDS011;35715;51.570;6.036;2023-11-19T08:45:41;28.40;;;5.68;;
49826;SDS011;35715;51.570;6.036;2023-11-19T08:48:06;41.33;;;8.80;;
49826;SDS011;35715;51.570;6.036;2023-11-19T08:50:31;35.20;;;6.63;;
49826;SDS011;35715;51.570;6.036;2023-11-19T08:52:57;26.90;;;7.95;;
49826;SDS011;35715;51.570;6.036;2023-11-19T08:55:22;26.60;;;7.60;;
49826;SDS011;35715;51.570;6.036;2023-11-19T08:57:47;38.47;;;9.15;;
49826;SDS011;35715;51.570;6.036;2023-11-19T09:00:13;28.42;;;9.55;;
49826;SDS011;35715;51.570;6.036;2023-11-19T09:02:41;34.05;;;8.70;;
49826;SDS011;35715;51.570;6.036;2023-11-19T09:05:08;31.08;;;6.65;;
49826;SDS011;35715;51.570;6.036;2023-11-19T09:07:33;40.63;;;7.88;;
49826;SDS011;35715;51.570;6.036;2023-11-19T09:10:05;39.85;;;7.72;;
49826;SDS011;35715;51.570;6.036;2023-11-19T09:12:30;28.40;;;6.25;;
49826;SDS011;35715;51.570;6.036;2023-11-19T09:14:56;30.25;;;5.97;;
49826;SDS011;35715;51.570;6.036;2023-11-19T09:17:21;33.42;;;7.38;;
49826;SDS011;35715;51.570;6.036;2023-11-19T09:19:49;31.52;;;7.75;;
49826;SDS011;35715;51.570;6.036;2023-11-19T09:22:15;44.17;;;8.13;;
49826;SDS011;35715;51.570;6.036;2023-11-19T09:24:41;38.67;;;7.80;;
49826;SDS011;35715;51.570;6.036;2023-11-19T09:27:07;33.40;;;9.88;;
49826;SDS011;35715;51.570;6.036;2023-11-19T09:29:32;33.70;;;7.95;;
49826;SDS011;35715;51.570;6.036;2023-11-19T09:31:58;31.92;;;6.85;;
49826;SDS011;35715;51.570;6.036;2023-11-19T09:34:23;28.00;;;6.70;;
49826;SDS011;35715;51.570;6.036;2023-11-19T09:36:48;31.20;;;6.72;;
49826;SDS011;35715;51.570;6.036;2023-11-19T09:39:13;41.20;;;8.40;;
49826;SDS011;35715;51.570;6.036;2023-11-19T09:41:43;33.95;;;7.55;;
49826;SDS011;35715;51.570;6.036;2023-11-19T09:44:11;31.85;;;8.73;;
49826;SDS011;35715;51.570;6.036;2023-11-19T09:46:38;24.25;;;7.75;;
49826;SDS011;35715;51.570;6.036;2023-11-19T09:49:05;30.73;;;8.40;;
49826;SDS011;35715;51.570;6.036;2023-11-19T09:51:33;54.53;;;9.80;;
49826;SDS011;35715;51.570;6.036;2023-11-19T09:54:00;30.92;;;6.97;;
49826;SDS011;35715;51.570;6.036;2023-11-19T09:56:25;41.15;;;8.95;;
49826;SDS011;35715;51.570;6.036;2023-11-19T09:58:54;31.88;;;7.15;;
49826;SDS011;35715;51.570;6.036;2023-11-19T10:01:19;35.85;;;8.02;;
49826;SDS011;35715;51.570;6.036;2023-11-19T10:03:46;38.72;;;9.77;;
49826;SDS011;35715;51.570;6.036;2023-11-19T10:06:12;32.65;;;9.73;;
49826;SDS011;35715;51.570;6.036;2023-11-19T10:08:39;43.13;;;8.95;;
49826;SDS011;35715;51.570;6.036;2023-11-19T10:11:05;37.90;;;7.13;;
49826;SDS011;35715;51.570;6.036;2023-11-19T10:13:31;32.95;;;8.30;;
49826;SDS011;35715;51.570;6.036;2023-11-19T10:16:07;26.83;;;7.43;;
49826;SDS011;35715;51.570;6.036;2023-11-19T10:18:33;28.20;;;6.75;;
49826;SDS011;35715;51.570;6.036;2023-11-19T10:21:03;30.58;;;7.35;;
49826;SDS011;35715;51.570;6.036;2023-11-19T10:23:31;44.25;;;10.27;;
49826;SDS011;35715;51.570;6.036;2023-11-19T10:26:03;27.15;;;6.63;;
49826;SDS011;35715;51.570;6.036;2023-11-19T10:28:41;29.25;;;7.22;;
49826;SDS011;35715;51.570;6.036;2023-11-19T10:31:11;50.53;;;10.40;;
49826;SDS011;35715;51.570;6.036;2023-11-19T10:33:40;29.42;;;7.47;;
49826;SDS011;35715;51.570;6.036;2023-11-19T10:36:05;25.08;;;8.32;;
49826;SDS011;35715;51.570;6.036;2023-11-19T10:38:31;37.05;;;8.32;;
49826;SDS011;35715;51.570;6.036;2023-11-19T10:40:57;28.10;;;8.68;;
49826;SDS011;35715;51.570;6.036;2023-11-19T10:43:23;28.45;;;7.03;;
49826;SDS011;35715;51.570;6.036;2023-11-19T10:45:48;23.00;;;6.00;;
49826;SDS011;35715;51.570;6.036;2023-11-19T10:48:17;31.92;;;5.68;;
49826;SDS011;35715;51.570;6.036;2023-11-19T10:50:44;31.33;;;7.57;;
49826;SDS011;35715;51.570;6.036;2023-11-19T10:53:11;25.58;;;6.53;;
49826;SDS011;35715;51.570;6.036;2023-11-19T10:55:40;25.35;;;6.60;;
49826;SDS011;35715;51.570;6.036;2023-11-19T10:58:07;20.48;;;6.07;;
49826;SDS011;35715;51.570;6.036;2023-11-19T11:03:17;20.67;;;6.25;;
49826;SDS011;35715;51.570;6.036;2023-11-19T11:05:47;31.52;;;7.38;;
49826;SDS011;35715;51.570;6.036;2023-11-19T11:08:14;19.95;;;6.40;;
49826;SDS011;35715;51.570;6.036;2023-11-19T11:10:43;29.10;;;8.27;;
49826;SDS011;35715;51.570;6.036;2023-11-19T11:13:09;35.58;;;7.85;;
49826;SDS011;35715;51.570;6.036;2023-11-19T11:15:37;23.50;;;6.40;;
49826;SDS011;35715;51.570;6.036;2023-11-19T11:18:03;23.17;;;6.32;;
49826;SDS011;35715;51.570;6.036;2023-11-19T11:20:29;24.33;;;6.18;;
49826;SDS011;35715;51.570;6.036;2023-11-19T11:26:06;30.10;;;6.75;;
49826;SDS011;35715;51.570;6.036;2023-11-19T11:31:38;19.73;;;6.50;;
49826;SDS011;35715;51.570;6.036;2023-11-19T11:34:08;21.63;;;6.70;;
49826;SDS011;35715;51.570;6.036;2023-11-19T11:39:28;26.50;;;7.03;;
49826;SDS011;35715;51.570;6.036;2023-11-19T11:45:06;27.90;;;6.35;;
49826;SDS011;35715;51.570;6.036;2023-11-19T11:48:18;16.58;;;3.75;;
49826;SDS011;35715;51.570;6.036;2023-11-19T11:50:24;24.17;;;6.80;;
49826;SDS011;35715;51.570;6.036;2023-11-19T11:55:26;25.10;;;5.63;;
49826;SDS011;35715;51.570;6.036;2023-11-19T11:57:52;22.05;;;6.03;;
49826;SDS011;35715;51.570;6.036;2023-11-19T12:00:38;31.20;;;6.55;;
49826;SDS011;35715;51.570;6.036;2023-11-19T12:03:05;30.95;;;6.30;;
49826;SDS011;35715;51.570;6.036;2023-11-19T12:05:46;30.52;;;5.25;;
49826;SDS011;35715;51.570;6.036;2023-11-19T12:08:13;27.35;;;7.50;;
49826;SDS011;35715;51.570;6.036;2023-11-19T12:10:47;20.55;;;5.90;;
49826;SDS011;35715;51.570;6.036;2023-11-19T12:13:14;16.27;;;6.00;;
49826;SDS011;35715;51.570;6.036;2023-11-19T12:20:51;24.00;;;6.32;;
49826;SDS011;35715;51.570;6.036;2023-11-19T12:23:19;20.30;;;4.70;;
49826;SDS011;35715;51.570;6.036;2023-11-19T12:25:45;30.65;;;6.03;;
49826;SDS011;35715;51.570;6.036;2023-11-19T12:28:14;20.17;;;5.20;;
49826;SDS011;35715;51.570;6.036;2023-11-19T12:30:44;22.45;;;4.80;;
49826;SDS011;35715;51.570;6.036;2023-11-19T12:33:14;24.35;;;5.28;;
49826;SDS011;35715;51.570;6.036;2023-11-19T12:35:45;14.55;;;3.97;;
49826;SDS011;35715;51.570;6.036;2023-11-19T12:38:21;18.13;;;5.15;;
49826;SDS011;35715;51.570;6.036;2023-11-19T12:41:09;15.25;;;5.10;;
49826;SDS011;35715;51.570;6.036;2023-11-19T12:43:38;15.00;;;4.22;;
49826;SDS011;35715;51.570;6.036;2023-11-19T12:46:17;17.35;;;5.15;;
49826;SDS011;35715;51.570;6.036;2023-11-19T12:48:44;12.73;;;4.95;;
49826;SDS011;35715;51.570;6.036;2023-11-19T12:51:11;29.67;;;6.65;;
49826;SDS011;35715;51.570;6.036;2023-11-19T12:53:57;27.25;;;6.40;;
49826;SDS011;35715;51.570;6.036;2023-11-19T12:56:23;19.40;;;4.90;;
49826;SDS011;35715;51.570;6.036;2023-11-19T12:58:49;15.35;;;5.05;;
49826;SDS011;35715;51.570;6.036;2023-11-19T13:01:19;19.85;;;5.10;;
49826;SDS011;35715;51.570;6.036;2023-11-19T13:03:47;21.13;;;6.07;;
49826;SDS011;35715;51.570;6.036;2023-11-19T13:06:16;18.52;;;6.70;;
49826;SDS011;35715;51.570;6.036;2023-11-19T13:08:45;21.58;;;5.82;;
49826;SDS011;35715;51.570;6.036;2023-11-19T13:11:30;23.98;;;6.80;;
49826;SDS011;35715;51.570;6.036;2023-11-19T13:13:57;37.22;;;6.13;;
49826;SDS011;35715;51.570;6.036;2023-11-19T13:16:24;22.95;;;5.25;;
49826;SDS011;35715;51.570;6.036;2023-11-19T13:18:51;20.63;;;5.60;;
49826;SDS011;35715;51.570;6.036;2023-11-19T13:21:16;32.65;;;6.95;;
49826;SDS011;35715;51.570;6.036;2023-11-19T13:23:42;23.10;;;6.03;;
49826;SDS011;35715;51.570;6.036;2023-11-19T13:26:08;16.80;;;5.35;;
49826;SDS011;35715;51.570;6.036;2023-11-19T13:28:34;21.15;;;5.90;;
49826;SDS011;35715;51.570;6.036;2023-11-19T13:30:59;19.55;;;4.45;;
49826;SDS011;35715;51.570;6.036;2023-11-19T13:33:25;29.45;;;5.65;;
49826;SDS011;35715;51.570;6.036;2023-11-19T13:35:51;27.50;;;6.13;;
49826;SDS011;35715;51.570;6.036;2023-11-19T13:38:17;20.42;;;4.18;;
49826;SDS011;35715;51.570;6.036;2023-11-19T13:40:42;18.52;;;4.90;;
49826;SDS011;35715;51.570;6.036;2023-11-19T13:43:07;24.65;;;5.07;;
49826;SDS011;35715;51.570;6.036;2023-11-19T13:45:33;20.02;;;4.28;;
49826;SDS011;35715;51.570;6.036;2023-11-19T13:47:59;36.03;;;6.03;;
49826;SDS011;35715;51.570;6.036;2023-11-19T13:50:24;21.90;;;5.53;;
49826;SDS011;35715;51.570;6.036;2023-11-19T13:52:53;18.87;;;5.03;;
49826;SDS011;35715;51.570;6.036;2023-11-19T13:55:19;24.48;;;5.05;;
49826;SDS011;35715;51.570;6.036;2023-11-19T13:57:44;25.45;;;5.05;;
49826;SDS011;35715;51.570;6.036;2023-11-19T14:00:10;17.55;;;4.25;;
49826;SDS011;35715;51.570;6.036;2023-11-19T14:02:38;16.58;;;4.40;;
49826;SDS011;35715;51.570;6.036;2023-11-19T14:05:05;16.67;;;5.20;;
49826;SDS011;35715;51.570;6.036;2023-11-19T14:07:31;19.63;;;5.65;;
49826;SDS011;35715;51.570;6.036;2023-11-19T14:09:56;20.08;;;6.93;;
49826;SDS011;35715;51.570;6.036;2023-11-19T14:12:22;23.30;;;5.80;;
49826;SDS011;35715;51.570;6.036;2023-11-19T14:14:47;18.13;;;5.72;;
49826;SDS011;35715;51.570;6.036;2023-11-19T14:17:13;17.77;;;4.72;;
49826;SDS011;35715;51.570;6.036;2023-11-19T14:19:40;13.70;;;4.68;;
49826;SDS011;35715;51.570;6.036;2023-11-19T14:22:05;16.15;;;4.20;;
49826;SDS011;35715;51.570;6.036;2023-11-19T14:24:31;21.92;;;6.45;;
49826;SDS011;35715;51.570;6.036;2023-11-19T14:26:57;12.60;;;4.90;;
49826;SDS011;35715;51.570;6.036;2023-11-19T14:29:24;21.60;;;5.03;;
49826;SDS011;35715;51.570;6.036;2023-11-19T14:31:51;30.27;;;6.97;;
49826;SDS011;35715;51.570;6.036;2023-11-19T14:34:16;20.90;;;5.80;;
49826;SDS011;35715;51.570;6.036;2023-11-19T14:36:41;19.67;;;4.70;;
49826;SDS011;35715;51.570;6.036;2023-11-19T14:39:07;18.98;;;5.00;;
49826;SDS011;35715;51.570;6.036;2023-11-19T14:41:32;29.02;;;5.85;;
49826;SDS011;35715;51.570;6.036;2023-11-19T14:43:58;19.92;;;5.47;;
49826;SDS011;35715;51.570;6.036;2023-11-19T14:46:23;14.90;;;4.07;;
49826;SDS011;35715;51.570;6.036;2023-11-19T14:48:48;23.17;;;5.72;;
49826;SDS011;35715;51.570;6.036;2023-11-19T14:51:13;15.13;;;4.25;;
49826;SDS011;35715;51.570;6.036;2023-11-19T14:53:39;25.38;;;6.80;;
49826;SDS011;35715;51.570;6.036;2023-11-19T14:56:04;18.67;;;5.25;;
49826;SDS011;35715;51.570;6.036;2023-11-19T14:58:32;17.55;;;4.68;;
49826;SDS011;35715;51.570;6.036;2023-11-19T15:00:57;20.17;;;4.00;;
49826;SDS011;35715;51.570;6.036;2023-11-19T15:03:23;16.38;;;4.15;;